sensor_id;sensor_type;location;lat;lon;timestamp;temperature;humidity
23347;DHT22;36852;45.466;11.066;2023-06-01T00:01:40;24.80;85.80
23347;DHT22;36852;45.466;11.066;2023-06-01T00:04:08;24.80;85.50
23347;DHT22;36852;45.466;11.066;2023-06-01T00:06:35;24.80;85.20
23347;DHT22;36852;45.466;11.066;2023-06-01T00:09:03;24.80;85.30
23347;DHT22;36852;45.466;11.066;2023-06-01T00:11:31;24.80;85.10
23347;DHT22;36852;45.466;11.066;2023-06-01T00:13:58;24.70;85.10
23347;DHT22;36852;45.466;11.066;2023-06-01T00:16:25;24.70;85.10
23347;DHT22;36852;45.466;11.066;2023-06-01T00:18:53;24.80;84.70
23347;DHT22;36852;45.466;11.066;2023-06-01T00:21:22;24.70;84.80
23347;DHT22;36852;45.466;11.066;2023-06-01T00:23:50;24.70;85.00
23347;DHT22;36852;45.466;11.066;2023-06-01T00:26:18;24.70;84.30
23347;DHT22;36852;45.466;11.066;2023-06-01T00:28:47;24.70;84.30
23347;DHT22;36852;45.466;11.066;2023-06-01T00:31:15;24.70;84.70
23347;DHT22;36852;45.466;11.066;2023-06-01T00:33:42;24.70;85.60
23347;DHT22;36852;45.466;11.066;2023-06-01T00:36:10;24.70;85.20
23347;DHT22;36852;45.466;11.066;2023-06-01T00:38:38;24.70;86.70
23347;DHT22;36852;45.466;11.066;2023-06-01T00:41:06;24.60;86.40
23347;DHT22;36852;45.466;11.066;2023-06-01T00:43:33;24.60;87.50
23347;DHT22;36852;45.466;11.066;2023-06-01T00:46:01;24.50;88.80
23347;DHT22;36852;45.466;11.066;2023-06-01T00:48:31;24.50;88.80
23347;DHT22;36852;45.466;11.066;2023-06-01T00:50:58;24.40;88.80
23347;DHT22;36852;45.466;11.066;2023-06-01T00:53:26;24.40;89.00
23347;DHT22;36852;45.466;11.066;2023-06-01T00:55:54;24.30;89.10
23347;DHT22;36852;45.466;11.066;2023-06-01T00:58:21;24.20;89.90
23347;DHT22;36852;45.466;11.066;2023-06-01T01:03:45;24.20;89.80
23347;DHT22;36852;45.466;11.066;2023-06-01T01:06:21;24.10;90.10
23347;DHT22;36852;45.466;11.066;2023-06-01T01:11:35;24.10;89.60
23347;DHT22;36852;45.466;11.066;2023-06-01T01:14:22;24.00;89.80
23347;DHT22;36852;45.466;11.066;2023-06-01T01:16:53;24.00;90.00
23347;DHT22;36852;45.466;11.066;2023-06-01T01:25:42;23.90;90.00
23347;DHT22;36852;45.466;11.066;2023-06-01T01:30:15;23.80;90.00
23347;DHT22;36852;45.466;11.066;2023-06-01T01:32:45;23.80;90.30
23347;DHT22;36852;45.466;11.066;2023-06-01T01:35:17;23.80;90.40
23347;DHT22;36852;45.466;11.066;2023-06-01T01:37:50;23.80;90.10
23347;DHT22;36852;45.466;11.066;2023-06-01T01:40:18;23.80;89.80
23347;DHT22;36852;45.466;11.066;2023-06-01T01:42:46;23.80;89.90
23347;DHT22;36852;45.466;11.066;2023-06-01T01:45:15;23.80;89.80
23347;DHT22;36852;45.466;11.066;2023-06-01T01:47:51;23.80;90.20
23347;DHT22;36852;45.466;11.066;2023-06-01T01:50:20;23.70;89.80
23347;DHT22;36852;45.466;11.066;2023-06-01T01:52:48;23.70;90.00
23347;DHT22;36852;45.466;11.066;2023-06-01T01:55:17;23.70;90.40
23347;DHT22;36852;45.466;11.066;2023-06-01T01:57:46;23.70;90.30
23347;DHT22;36852;45.466;11.066;2023-06-01T02:00:15;23.70;90.20
23347;DHT22;36852;45.466;11.066;2023-06-01T02:02:46;23.70;90.10
23347;DHT22;36852;45.466;11.066;2023-06-01T02:05:14;23.70;90.20
23347;DHT22;36852;45.466;11.066;2023-06-01T02:07:47;23.70;90.10
23347;DHT22;36852;45.466;11.066;2023-06-01T02:10:15;23.70;90.30
23347;DHT22;36852;45.466;11.066;2023-06-01T02:12:42;23.70;90.40
23347;DHT22;36852;45.466;11.066;2023-06-01T02:15:11;23.70;90.40
23347;DHT22;36852;45.466;11.066;2023-06-01T02:17:39;23.70;90.30
23347;DHT22;36852;45.466;11.066;2023-06-01T02:20:10;23.70;90.40
23347;DHT22;36852;45.466;11.066;2023-06-01T02:22:38;23.70;90.50
23347;DHT22;36852;45.466;11.066;2023-06-01T02:25:07;23.70;90.40
23347;DHT22;36852;45.466;11.066;2023-06-01T02:27:34;23.70;90.50
23347;DHT22;36852;45.466;11.066;2023-06-01T02:30:02;23.70;90.60
23347;DHT22;36852;45.466;11.066;2023-06-01T02:32:29;23.70;90.40
23347;DHT22;36852;45.466;11.066;2023-06-01T02:34:57;23.80;90.40
23347;DHT22;36852;45.466;11.066;2023-06-01T02:37:25;23.70;90.50
23347;DHT22;36852;45.466;11.066;2023-06-01T02:39:53;23.80;90.60
23347;DHT22;36852;45.466;11.066;2023-06-01T02:42:21;23.80;90.60
23347;DHT22;36852;45.466;11.066;2023-06-01T02:44:48;23.80;90.60
23347;DHT22;36852;45.466;11.066;2023-06-01T02:47:16;23.80;90.70
23347;DHT22;36852;45.466;11.066;2023-06-01T02:49:44;23.80;91.30
23347;DHT22;36852;45.466;11.066;2023-06-01T02:52:16;23.80;90.60
23347;DHT22;36852;45.466;11.066;2023-06-01T02:54:43;23.70;91.00
23347;DHT22;36852;45.466;11.066;2023-06-01T02:57:29;23.70;90.60
23347;DHT22;36852;45.466;11.066;2023-06-01T02:59:59;23.70;90.80
23347;DHT22;36852;45.466;11.066;2023-06-01T03:02:26;23.70;90.50
23347;DHT22;36852;45.466;11.066;2023-06-01T03:04:54;23.70;90.60
23347;DHT22;36852;45.466;11.066;2023-06-01T03:07:21;23.70;90.80
23347;DHT22;36852;45.466;11.066;2023-06-01T03:09:51;23.70;91.10
23347;DHT22;36852;45.466;11.066;2023-06-01T03:12:22;23.70;91.00
23347;DHT22;36852;45.466;11.066;2023-06-01T03:14:49;23.70;91.30
23347;DHT22;36852;45.466;11.066;2023-06-01T03:17:16;23.60;91.00
23347;DHT22;36852;45.466;11.066;2023-06-01T03:19:44;23.70;91.30
23347;DHT22;36852;45.466;11.066;2023-06-01T03:22:13;23.60;91.10
23347;DHT22;36852;45.466;11.066;2023-06-01T03:24:42;23.60;91.10
23347;DHT22;36852;45.466;11.066;2023-06-01T03:27:10;23.60;91.60
23347;DHT22;36852;45.466;11.066;2023-06-01T03:29:40;23.60;91.40
23347;DHT22;36852;45.466;11.066;2023-06-01T03:32:08;23.70;91.40
23347;DHT22;36852;45.466;11.066;2023-06-01T03:34:39;23.70;91.20
23347;DHT22;36852;45.466;11.066;2023-06-01T03:37:07;23.60;91.20
23347;DHT22;36852;45.466;11.066;2023-06-01T03:39:34;23.60;91.20
23347;DHT22;36852;45.466;11.066;2023-06-01T03:42:04;23.60;91.30
23347;DHT22;36852;45.466;11.066;2023-06-01T03:44:32;23.60;91.30
23347;DHT22;36852;45.466;11.066;2023-06-01T03:47:00;23.60;91.20
23347;DHT22;36852;45.466;11.066;2023-06-01T03:49:28;23.60;91.00
23347;DHT22;36852;45.466;11.066;2023-06-01T03:51:55;23.60;91.00
23347;DHT22;36852;45.466;11.066;2023-06-01T03:54:23;23.50;91.10
23347;DHT22;36852;45.466;11.066;2023-06-01T03:56:50;23.50;91.10
23347;DHT22;36852;45.466;11.066;2023-06-01T03:59:18;23.50;91.50
23347;DHT22;36852;45.466;11.066;2023-06-01T04:01:56;23.50;91.40
23347;DHT22;36852;45.466;11.066;2023-06-01T04:04:24;23.50;91.50
23347;DHT22;36852;45.466;11.066;2023-06-01T04:06:53;23.50;91.40
23347;DHT22;36852;45.466;11.066;2023-06-01T04:09:22;23.50;91.40
23347;DHT22;36852;45.466;11.066;2023-06-01T04:11:49;23.50;91.60
23347;DHT22;36852;45.466;11.066;2023-06-01T04:14:18;23.40;91.80
23347;DHT22;36852;45.466;11.066;2023-06-01T04:16:45;23.50;92.00
23347;DHT22;36852;45.466;11.066;2023-06-01T04:19:13;23.50;92.00
23347;DHT22;36852;45.466;11.066;2023-06-01T04:21:41;23.40;92.10
23347;DHT22;36852;45.466;11.066;2023-06-01T04:24:12;23.50;92.20
23347;DHT22;36852;45.466;11.066;2023-06-01T04:26:39;23.50;92.20
23347;DHT22;36852;45.466;11.066;2023-06-01T04:29:07;23.40;92.30
23347;DHT22;36852;45.466;11.066;2023-06-01T04:31:39;23.50;92.40
23347;DHT22;36852;45.466;11.066;2023-06-01T04:34:09;23.50;92.50
23347;DHT22;36852;45.466;11.066;2023-06-01T04:36:36;23.40;92.30
23347;DHT22;36852;45.466;11.066;2023-06-01T04:39:08;23.50;92.60
23347;DHT22;36852;45.466;11.066;2023-06-01T04:41:37;23.50;92.70
23347;DHT22;36852;45.466;11.066;2023-06-01T04:44:04;23.40;93.00
23347;DHT22;36852;45.466;11.066;2023-06-01T04:46:35;23.50;94.00
23347;DHT22;36852;45.466;11.066;2023-06-01T04:49:04;23.50;94.00
23347;DHT22;36852;45.466;11.066;2023-06-01T04:51:34;23.50;94.60
23347;DHT22;36852;45.466;11.066;2023-06-01T04:54:03;23.60;95.00
23347;DHT22;36852;45.466;11.066;2023-06-01T04:56:31;23.60;94.90
23347;DHT22;36852;45.466;11.066;2023-06-01T04:58:59;23.70;94.90
23347;DHT22;36852;45.466;11.066;2023-06-01T05:01:29;23.70;94.90
23347;DHT22;36852;45.466;11.066;2023-06-01T05:03:57;23.70;94.70
23347;DHT22;36852;45.466;11.066;2023-06-01T05:06:26;23.80;94.50
23347;DHT22;36852;45.466;11.066;2023-06-01T05:08:54;23.80;94.50
23347;DHT22;36852;45.466;11.066;2023-06-01T05:11:32;23.80;94.60
23347;DHT22;36852;45.466;11.066;2023-06-01T05:16:48;23.90;94.00
23347;DHT22;36852;45.466;11.066;2023-06-01T05:19:17;23.90;94.30
23347;DHT22;36852;45.466;11.066;2023-06-01T05:24:38;23.90;94.70
23347;DHT22;36852;45.466;11.066;2023-06-01T05:27:06;24.00;95.00
23347;DHT22;36852;45.466;11.066;2023-06-01T05:29:36;24.00;95.20
23347;DHT22;36852;45.466;11.066;2023-06-01T05:32:04;24.00;95.30
23347;DHT22;36852;45.466;11.066;2023-06-01T05:34:33;24.10;95.40
23347;DHT22;36852;45.466;11.066;2023-06-01T05:37:00;24.10;95.40
23347;DHT22;36852;45.466;11.066;2023-06-01T05:39:28;24.10;95.60
23347;DHT22;36852;45.466;11.066;2023-06-01T05:41:57;24.20;95.60
23347;DHT22;36852;45.466;11.066;2023-06-01T05:44:28;24.20;95.30
23347;DHT22;36852;45.466;11.066;2023-06-01T05:46:57;24.30;95.60
23347;DHT22;36852;45.466;11.066;2023-06-01T05:49:26;24.30;95.70
23347;DHT22;36852;45.466;11.066;2023-06-01T05:51:56;24.30;95.50
23347;DHT22;36852;45.466;11.066;2023-06-01T05:54:25;24.30;95.60
23347;DHT22;36852;45.466;11.066;2023-06-01T05:56:52;24.30;95.60
23347;DHT22;36852;45.466;11.066;2023-06-01T05:59:21;24.30;95.90
23347;DHT22;36852;45.466;11.066;2023-06-01T06:01:49;24.30;95.60
23347;DHT22;36852;45.466;11.066;2023-06-01T06:04:17;24.30;95.60
23347;DHT22;36852;45.466;11.066;2023-06-01T06:06:45;24.30;96.10
23347;DHT22;36852;45.466;11.066;2023-06-01T06:09:12;24.40;96.30
23347;DHT22;36852;45.466;11.066;2023-06-01T06:11:41;24.40;95.40
23347;DHT22;36852;45.466;11.066;2023-06-01T06:14:08;24.40;95.10
23347;DHT22;36852;45.466;11.066;2023-06-01T06:16:37;24.30;95.50
23347;DHT22;36852;45.466;11.066;2023-06-01T06:19:06;24.30;95.90
23347;DHT22;36852;45.466;11.066;2023-06-01T06:21:33;24.40;95.50
23347;DHT22;36852;45.466;11.066;2023-06-01T06:24:01;24.40;95.70
23347;DHT22;36852;45.466;11.066;2023-06-01T06:26:29;24.40;95.70
23347;DHT22;36852;45.466;11.066;2023-06-01T06:28:57;24.40;95.20
23347;DHT22;36852;45.466;11.066;2023-06-01T06:31:25;24.50;95.20
23347;DHT22;36852;45.466;11.066;2023-06-01T06:33:52;24.50;95.00
23347;DHT22;36852;45.466;11.066;2023-06-01T06:36:20;24.60;94.80
23347;DHT22;36852;45.466;11.066;2023-06-01T06:38:48;24.60;94.70
23347;DHT22;36852;45.466;11.066;2023-06-01T06:41:16;24.60;94.40
23347;DHT22;36852;45.466;11.066;2023-06-01T06:43:44;24.60;94.40
23347;DHT22;36852;45.466;11.066;2023-06-01T06:46:12;24.70;94.10
23347;DHT22;36852;45.466;11.066;2023-06-01T06:48:39;24.70;94.40
23347;DHT22;36852;45.466;11.066;2023-06-01T06:51:08;24.70;92.50
23347;DHT22;36852;45.466;11.066;2023-06-01T06:53:35;24.70;92.00
23347;DHT22;36852;45.466;11.066;2023-06-01T06:56:03;24.70;92.10
23347;DHT22;36852;45.466;11.066;2023-06-01T06:58:31;24.70;92.40
23347;DHT22;36852;45.466;11.066;2023-06-01T07:00:58;24.70;91.70
23347;DHT22;36852;45.466;11.066;2023-06-01T07:03:27;24.70;92.10
23347;DHT22;36852;45.466;11.066;2023-06-01T07:05:55;24.80;92.30
23347;DHT22;36852;45.466;11.066;2023-06-01T07:08:23;24.90;92.50
23347;DHT22;36852;45.466;11.066;2023-06-01T07:10:53;24.90;92.60
23347;DHT22;36852;45.466;11.066;2023-06-01T07:13:22;24.90;92.50
23347;DHT22;36852;45.466;11.066;2023-06-01T07:15:52;25.00;90.80
23347;DHT22;36852;45.466;11.066;2023-06-01T07:18:19;25.00;90.80
23347;DHT22;36852;45.466;11.066;2023-06-01T07:20:47;25.00;90.50
23347;DHT22;36852;45.466;11.066;2023-06-01T07:23:15;24.90;89.10
23347;DHT22;36852;45.466;11.066;2023-06-01T07:25:43;24.90;90.10
23347;DHT22;36852;45.466;11.066;2023-06-01T07:28:11;24.90;90.20
23347;DHT22;36852;45.466;11.066;2023-06-01T07:30:40;25.00;90.00
23347;DHT22;36852;45.466;11.066;2023-06-01T07:33:07;25.00;89.80
23347;DHT22;36852;45.466;11.066;2023-06-01T07:35:36;24.90;87.80
23347;DHT22;36852;45.466;11.066;2023-06-01T07:38:04;24.90;89.20
23347;DHT22;36852;45.466;11.066;2023-06-01T07:40:35;24.90;89.60
23347;DHT22;36852;45.466;11.066;2023-06-01T07:43:03;25.00;88.30
23347;DHT22;36852;45.466;11.066;2023-06-01T07:45:30;25.00;87.50
23347;DHT22;36852;45.466;11.066;2023-06-01T07:47:58;25.00;87.40
23347;DHT22;36852;45.466;11.066;2023-06-01T07:50:28;25.00;87.10
23347;DHT22;36852;45.466;11.066;2023-06-01T07:52:58;25.00;86.40
23347;DHT22;36852;45.466;11.066;2023-06-01T07:55:29;25.00;86.20
23347;DHT22;36852;45.466;11.066;2023-06-01T07:57:56;25.00;88.60
23347;DHT22;36852;45.466;11.066;2023-06-01T08:00:24;25.00;89.10
23347;DHT22;36852;45.466;11.066;2023-06-01T08:02:53;25.00;89.40
23347;DHT22;36852;45.466;11.066;2023-06-01T08:05:20;25.10;89.50
23347;DHT22;36852;45.466;11.066;2023-06-01T08:07:49;25.10;89.80
23347;DHT22;36852;45.466;11.066;2023-06-01T08:10:18;25.20;89.40
23347;DHT22;36852;45.466;11.066;2023-06-01T08:12:45;25.20;89.80
23347;DHT22;36852;45.466;11.066;2023-06-01T08:15:15;25.20;88.40
23347;DHT22;36852;45.466;11.066;2023-06-01T08:17:45;25.30;88.30
23347;DHT22;36852;45.466;11.066;2023-06-01T08:20:12;25.30;88.50
23347;DHT22;36852;45.466;11.066;2023-06-01T08:22:41;25.30;88.20
23347;DHT22;36852;45.466;11.066;2023-06-01T08:25:09;25.40;88.10
23347;DHT22;36852;45.466;11.066;2023-06-01T08:27:37;25.40;88.20
23347;DHT22;36852;45.466;11.066;2023-06-01T08:30:05;25.40;88.60
23347;DHT22;36852;45.466;11.066;2023-06-01T08:32:33;25.50;86.30
23347;DHT22;36852;45.466;11.066;2023-06-01T08:35:02;25.50;87.70
23347;DHT22;36852;45.466;11.066;2023-06-01T08:37:30;25.60;87.70
23347;DHT22;36852;45.466;11.066;2023-06-01T08:39:58;25.60;87.30
23347;DHT22;36852;45.466;11.066;2023-06-01T08:42:30;25.60;85.90
23347;DHT22;36852;45.466;11.066;2023-06-01T08:45:00;25.60;85.40
23347;DHT22;36852;45.466;11.066;2023-06-01T08:47:29;25.70;86.60
23347;DHT22;36852;45.466;11.066;2023-06-01T08:49:59;25.70;86.10
23347;DHT22;36852;45.466;11.066;2023-06-01T08:52:28;25.70;85.50
23347;DHT22;36852;45.466;11.066;2023-06-01T08:54:56;25.70;86.20
23347;DHT22;36852;45.466;11.066;2023-06-01T08:57:25;25.70;86.90
23347;DHT22;36852;45.466;11.066;2023-06-01T08:59:53;25.80;86.50
23347;DHT22;36852;45.466;11.066;2023-06-01T09:02:22;25.80;83.60
23347;DHT22;36852;45.466;11.066;2023-06-01T09:04:50;25.80;83.80
23347;DHT22;36852;45.466;11.066;2023-06-01T09:07:18;25.90;84.40
23347;DHT22;36852;45.466;11.066;2023-06-01T09:09:47;25.90;84.10
23347;DHT22;36852;45.466;11.066;2023-06-01T09:12:25;25.90;84.60
23347;DHT22;36852;45.466;11.066;2023-06-01T09:15:12;25.90;84.20
23347;DHT22;36852;45.466;11.066;2023-06-01T09:17:40;25.90;84.50
23347;DHT22;36852;45.466;11.066;2023-06-01T09:20:11;26.00;83.40
23347;DHT22;36852;45.466;11.066;2023-06-01T09:22:39;26.10;83.60
23347;DHT22;36852;45.466;11.066;2023-06-01T09:25:08;26.10;81.80
23347;DHT22;36852;45.466;11.066;2023-06-01T09:27:46;26.20;81.30
23347;DHT22;36852;45.466;11.066;2023-06-01T09:30:14;26.20;81.00
23347;DHT22;36852;45.466;11.066;2023-06-01T09:32:42;26.20;81.60
23347;DHT22;36852;45.466;11.066;2023-06-01T09:35:11;26.30;81.40
23347;DHT22;36852;45.466;11.066;2023-06-01T09:37:41;26.30;81.50
23347;DHT22;36852;45.466;11.066;2023-06-01T09:40:16;26.40;81.40
23347;DHT22;36852;45.466;11.066;2023-06-01T09:42:45;26.40;83.00
23347;DHT22;36852;45.466;11.066;2023-06-01T09:45:20;26.50;81.30
23347;DHT22;36852;45.466;11.066;2023-06-01T09:47:48;26.50;81.80
23347;DHT22;36852;45.466;11.066;2023-06-01T09:50:32;26.50;82.10
23347;DHT22;36852;45.466;11.066;2023-06-01T09:53:01;26.50;84.90
23347;DHT22;36852;45.466;11.066;2023-06-01T09:55:29;26.60;81.30
23347;DHT22;36852;45.466;11.066;2023-06-01T10:00:44;26.60;79.30
23347;DHT22;36852;45.466;11.066;2023-06-01T10:03:16;26.60;80.90
23347;DHT22;36852;45.466;11.066;2023-06-01T10:05:44;26.70;80.30
23347;DHT22;36852;45.466;11.066;2023-06-01T10:08:13;26.70;78.20
23347;DHT22;36852;45.466;11.066;2023-06-01T10:10:42;26.70;77.80
23347;DHT22;36852;45.466;11.066;2023-06-01T10:13:10;26.70;79.20
23347;DHT22;36852;45.466;11.066;2023-06-01T10:15:41;26.70;80.00
23347;DHT22;36852;45.466;11.066;2023-06-01T10:18:09;26.70;80.70
23347;DHT22;36852;45.466;11.066;2023-06-01T10:20:37;26.80;82.40
23347;DHT22;36852;45.466;11.066;2023-06-01T10:23:05;26.80;81.10
23347;DHT22;36852;45.466;11.066;2023-06-01T10:25:39;26.90;79.80
23347;DHT22;36852;45.466;11.066;2023-06-01T10:28:10;26.90;81.70
23347;DHT22;36852;45.466;11.066;2023-06-01T10:30:38;26.90;80.10
23347;DHT22;36852;45.466;11.066;2023-06-01T10:33:07;26.90;77.60
23347;DHT22;36852;45.466;11.066;2023-06-01T10:40:41;26.90;80.50
23347;DHT22;36852;45.466;11.066;2023-06-01T10:45:56;27.00;79.40
23347;DHT22;36852;45.466;11.066;2023-06-01T10:48:50;27.00;78.90
23347;DHT22;36852;45.466;11.066;2023-06-01T10:51:36;27.00;82.60
23347;DHT22;36852;45.466;11.066;2023-06-01T10:53:27;27.10;83.70
23347;DHT22;36852;45.466;11.066;2023-06-01T10:56:28;27.20;79.70
23347;DHT22;36852;45.466;11.066;2023-06-01T10:58:30;27.20;77.60
23347;DHT22;36852;45.466;11.066;2023-06-01T11:00:58;27.20;76.20
23347;DHT22;36852;45.466;11.066;2023-06-01T11:03:47;27.20;76.40
23347;DHT22;36852;45.466;11.066;2023-06-01T11:06:28;27.30;77.10
23347;DHT22;36852;45.466;11.066;2023-06-01T11:08:57;27.30;77.50
23347;DHT22;36852;45.466;11.066;2023-06-01T11:11:55;27.40;78.40
23347;DHT22;36852;45.466;11.066;2023-06-01T11:14:15;27.40;77.60
23347;DHT22;36852;45.466;11.066;2023-06-01T11:16:43;27.50;79.70
23347;DHT22;36852;45.466;11.066;2023-06-01T11:19:18;27.50;76.60
23347;DHT22;36852;45.466;11.066;2023-06-01T11:21:48;27.50;76.20
23347;DHT22;36852;45.466;11.066;2023-06-01T11:24:16;27.50;75.60
23347;DHT22;36852;45.466;11.066;2023-06-01T11:26:45;27.50;76.80
23347;DHT22;36852;45.466;11.066;2023-06-01T11:32:00;27.50;78.50
23347;DHT22;36852;45.466;11.066;2023-06-01T11:37:01;27.60;77.10
23347;DHT22;36852;45.466;11.066;2023-06-01T11:39:29;27.60;76.80
23347;DHT22;36852;45.466;11.066;2023-06-01T11:42:13;27.60;77.40
23347;DHT22;36852;45.466;11.066;2023-06-01T11:44:42;27.70;79.40
23347;DHT22;36852;45.466;11.066;2023-06-01T11:47:10;27.70;80.30
23347;DHT22;36852;45.466;11.066;2023-06-01T11:49:48;27.80;79.20
23347;DHT22;36852;45.466;11.066;2023-06-01T11:52:16;27.80;80.60
23347;DHT22;36852;45.466;11.066;2023-06-01T11:54:46;27.80;77.80
23347;DHT22;36852;45.466;11.066;2023-06-01T11:57:13;27.90;78.80
23347;DHT22;36852;45.466;11.066;2023-06-01T11:59:45;27.90;78.80
23347;DHT22;36852;45.466;11.066;2023-06-01T12:04:54;28.00;79.00
23347;DHT22;36852;45.466;11.066;2023-06-01T12:07:22;28.00;76.80
23347;DHT22;36852;45.466;11.066;2023-06-01T12:09:53;28.00;76.80
23347;DHT22;36852;45.466;11.066;2023-06-01T12:12:22;28.00;76.90
23347;DHT22;36852;45.466;11.066;2023-06-01T12:14:50;28.00;78.60
23347;DHT22;36852;45.466;11.066;2023-06-01T12:17:18;28.10;79.00
23347;DHT22;36852;45.466;11.066;2023-06-01T12:19:47;28.20;79.00
23347;DHT22;36852;45.466;11.066;2023-06-01T12:22:16;28.20;79.30
23347;DHT22;36852;45.466;11.066;2023-06-01T12:24:45;28.20;77.50
23347;DHT22;36852;45.466;11.066;2023-06-01T12:27:14;28.20;76.50
23347;DHT22;36852;45.466;11.066;2023-06-01T12:29:47;28.20;77.20
23347;DHT22;36852;45.466;11.066;2023-06-01T12:32:16;28.20;77.20
23347;DHT22;36852;45.466;11.066;2023-06-01T12:35:02;28.30;75.90
23347;DHT22;36852;45.466;11.066;2023-06-01T12:37:19;28.40;75.70
23347;DHT22;36852;45.466;11.066;2023-06-01T12:39:53;28.40;75.80
23347;DHT22;36852;45.466;11.066;2023-06-01T12:42:37;28.40;74.50
23347;DHT22;36852;45.466;11.066;2023-06-01T12:45:06;28.50;78.80
23347;DHT22;36852;45.466;11.066;2023-06-01T12:47:38;28.60;77.10
23347;DHT22;36852;45.466;11.066;2023-06-01T12:50:04;28.70;75.40
23347;DHT22;36852;45.466;11.066;2023-06-01T12:52:32;28.80;73.40
23347;DHT22;36852;45.466;11.066;2023-06-01T12:55:01;28.80;74.30
23347;DHT22;36852;45.466;11.066;2023-06-01T12:57:31;28.90;71.70
23347;DHT22;36852;45.466;11.066;2023-06-01T12:59:59;28.90;72.20
23347;DHT22;36852;45.466;11.066;2023-06-01T13:02:26;28.90;72.70
23347;DHT22;36852;45.466;11.066;2023-06-01T13:04:54;29.00;71.60
23347;DHT22;36852;45.466;11.066;2023-06-01T13:07:23;29.10;73.10
23347;DHT22;36852;45.466;11.066;2023-06-01T13:09:51;29.20;72.20
23347;DHT22;36852;45.466;11.066;2023-06-01T13:12:19;29.20;71.70
23347;DHT22;36852;45.466;11.066;2023-06-01T13:14:47;29.30;72.00
23347;DHT22;36852;45.466;11.066;2023-06-01T13:17:15;29.30;70.30
23347;DHT22;36852;45.466;11.066;2023-06-01T13:19:43;29.30;69.20
23347;DHT22;36852;45.466;11.066;2023-06-01T13:22:13;29.20;69.10
23347;DHT22;36852;45.466;11.066;2023-06-01T13:24:41;29.10;69.90
23347;DHT22;36852;45.466;11.066;2023-06-01T13:27:10;29.10;67.70
23347;DHT22;36852;45.466;11.066;2023-06-01T13:29:38;29.10;70.00
23347;DHT22;36852;45.466;11.066;2023-06-01T13:32:06;29.10;70.90
23347;DHT22;36852;45.466;11.066;2023-06-01T13:34:36;29.20;69.90
23347;DHT22;36852;45.466;11.066;2023-06-01T13:37:04;29.30;70.00
23347;DHT22;36852;45.466;11.066;2023-06-01T13:39:32;29.50;70.50
23347;DHT22;36852;45.466;11.066;2023-06-01T13:42:00;29.60;70.70
23347;DHT22;36852;45.466;11.066;2023-06-01T13:44:28;29.70;68.10
23347;DHT22;36852;45.466;11.066;2023-06-01T13:46:56;29.80;68.80
23347;DHT22;36852;45.466;11.066;2023-06-01T13:49:23;29.90;69.00
23347;DHT22;36852;45.466;11.066;2023-06-01T13:51:51;30.00;66.60
23347;DHT22;36852;45.466;11.066;2023-06-01T13:54:19;30.00;67.40
23347;DHT22;36852;45.466;11.066;2023-06-01T13:56:46;30.10;64.20
23347;DHT22;36852;45.466;11.066;2023-06-01T13:59:16;30.10;64.50
23347;DHT22;36852;45.466;11.066;2023-06-01T14:01:44;30.20;69.10
23347;DHT22;36852;45.466;11.066;2023-06-01T14:04:13;30.30;67.80
23347;DHT22;36852;45.466;11.066;2023-06-01T14:06:41;30.40;67.30
23347;DHT22;36852;45.466;11.066;2023-06-01T14:09:09;30.40;68.50
23347;DHT22;36852;45.466;11.066;2023-06-01T14:11:37;30.60;66.20
23347;DHT22;36852;45.466;11.066;2023-06-01T14:14:04;30.60;67.70
23347;DHT22;36852;45.466;11.066;2023-06-01T14:16:32;30.70;66.60
23347;DHT22;36852;45.466;11.066;2023-06-01T14:19:00;30.80;65.70
23347;DHT22;36852;45.466;11.066;2023-06-01T14:21:28;30.90;65.40
23347;DHT22;36852;45.466;11.066;2023-06-01T14:23:58;30.90;64.70
23347;DHT22;36852;45.466;11.066;2023-06-01T14:26:26;30.90;64.20
23347;DHT22;36852;45.466;11.066;2023-06-01T14:28:54;30.90;64.00
23347;DHT22;36852;45.466;11.066;2023-06-01T14:31:23;30.80;64.10
23347;DHT22;36852;45.466;11.066;2023-06-01T14:33:51;30.90;62.50
23347;DHT22;36852;45.466;11.066;2023-06-01T14:36:19;30.90;59.20
23347;DHT22;36852;45.466;11.066;2023-06-01T14:38:49;30.90;58.70
23347;DHT22;36852;45.466;11.066;2023-06-01T14:41:17;30.80;58.90
23347;DHT22;36852;45.466;11.066;2023-06-01T14:43:45;30.70;60.00
23347;DHT22;36852;45.466;11.066;2023-06-01T14:46:18;30.70;61.30
23347;DHT22;36852;45.466;11.066;2023-06-01T14:48:47;30.60;63.40
23347;DHT22;36852;45.466;11.066;2023-06-01T14:51:15;30.50;62.60
23347;DHT22;36852;45.466;11.066;2023-06-01T14:53:43;30.40;64.00
23347;DHT22;36852;45.466;11.066;2023-06-01T14:56:12;30.40;65.40
23347;DHT22;36852;45.466;11.066;2023-06-01T14:58:40;30.40;65.60
23347;DHT22;36852;45.466;11.066;2023-06-01T15:01:08;30.50;64.30
23347;DHT22;36852;45.466;11.066;2023-06-01T15:03:36;30.60;65.60
23347;DHT22;36852;45.466;11.066;2023-06-01T15:06:04;30.60;65.20
23347;DHT22;36852;45.466;11.066;2023-06-01T15:08:32;30.60;62.30
23347;DHT22;36852;45.466;11.066;2023-06-01T15:11:00;30.80;65.10
23347;DHT22;36852;45.466;11.066;2023-06-01T15:13:28;30.90;66.60
23347;DHT22;36852;45.466;11.066;2023-06-01T15:15:56;31.10;64.40
23347;DHT22;36852;45.466;11.066;2023-06-01T15:18:23;31.10;60.80
23347;DHT22;36852;45.466;11.066;2023-06-01T15:20:52;31.10;62.30
23347;DHT22;36852;45.466;11.066;2023-06-01T15:23:20;31.00;63.50
23347;DHT22;36852;45.466;11.066;2023-06-01T15:25:48;30.90;64.20
23347;DHT22;36852;45.466;11.066;2023-06-01T15:28:16;30.80;64.20
23347;DHT22;36852;45.466;11.066;2023-06-01T15:30:44;30.70;65.60
23347;DHT22;36852;45.466;11.066;2023-06-01T15:33:12;30.50;66.30
23347;DHT22;36852;45.466;11.066;2023-06-01T15:35:42;30.40;64.70
23347;DHT22;36852;45.466;11.066;2023-06-01T15:38:10;30.30;64.10
23347;DHT22;36852;45.466;11.066;2023-06-01T15:40:39;30.20;66.60
23347;DHT22;36852;45.466;11.066;2023-06-01T15:43:07;30.10;66.70
23347;DHT22;36852;45.466;11.066;2023-06-01T15:45:34;30.00;67.40
23347;DHT22;36852;45.466;11.066;2023-06-01T15:48:02;29.90;67.30
23347;DHT22;36852;45.466;11.066;2023-06-01T15:50:29;29.80;66.90
23347;DHT22;36852;45.466;11.066;2023-06-01T15:52:57;29.70;66.70
23347;DHT22;36852;45.466;11.066;2023-06-01T15:55:25;29.60;66.90
23347;DHT22;36852;45.466;11.066;2023-06-01T15:57:53;29.60;67.20
23347;DHT22;36852;45.466;11.066;2023-06-01T16:00:22;29.50;67.00
23347;DHT22;36852;45.466;11.066;2023-06-01T16:02:49;29.50;67.20
23347;DHT22;36852;45.466;11.066;2023-06-01T16:05:17;29.40;68.00